sensor_id;sensor_type;location;lat;lon;timestamp;P1;durP1;ratioP1;P2;durP2;ratioP2
18720;SDS011;9489;50.948;3.114;2023-03-07T00:01:03;10.57;;;7.00;;
18720;SDS011;9489;50.948;3.114;2023-03-07T00:03:30;11.50;;;6.78;;
18720;SDS011;9489;50.948;3.114;2023-03-07T00:06:03;9.00;;;7.05;;
18720;SDS011;9489;50.948;3.114;2023-03-07T00:08:31;11.52;;;6.72;;
18720;SDS011;9489;50.948;3.114;2023-03-07T00:11:04;11.32;;;6.55;;
18720;SDS011;9489;50.948;3.114;2023-03-07T00:13:31;6.20;;;5.18;;
18720;SDS011;9489;50.948;3.114;2023-03-07T00:16:01;7.63;;;5.50;;
18720;SDS011;9489;50.948;3.114;2023-03-07T00:18:28;8.43;;;4.70;;
18720;SDS011;9489;50.948;3.114;2023-03-07T00:20:57;7.15;;;4.82;;
18720;SDS011;9489;50.948;3.114;2023-03-07T00:23:24;4.20;;;3.70;;
18720;SDS011;9489;50.948;3.114;2023-03-07T00:25:59;4.40;;;3.92;;
18720;SDS011;9489;50.948;3.114;2023-03-07T00:28:28;5.78;;;3.90;;
18720;SDS011;9489;50.948;3.114;2023-03-07T00:30:57;5.90;;;3.47;;
18720;SDS011;9489;50.948;3.114;2023-03-07T00:33:26;6.18;;;3.70;;
18720;SDS011;9489;50.948;3.114;2023-03-07T00:35:58;4.10;;;3.60;;
18720;SDS011;9489;50.948;3.114;2023-03-07T00:38:44;4.55;;;3.45;;
18720;SDS011;9489;50.948;3.114;2023-03-07T00:41:12;6.03;;;4.30;;
18720;SDS011;9489;50.948;3.114;2023-03-07T00:43:40;6.50;;;4.13;;
18720;SDS011;9489;50.948;3.114;2023-03-07T00:46:06;5.95;;;3.78;;
18720;SDS011;9489;50.948;3.114;2023-03-07T00:48:32;5.93;;;4.38;;
18720;SDS011;9489;50.948;3.114;2023-03-07T00:50:59;4.55;;;3.50;;
18720;SDS011;9489;50.948;3.114;2023-03-07T00:53:25;7.13;;;4.22;;
18720;SDS011;9489;50.948;3.114;2023-03-07T00:56:04;3.97;;;3.67;;
18720;SDS011;9489;50.948;3.114;2023-03-07T00:58:36;4.97;;;4.22;;
18720;SDS011;9489;50.948;3.114;2023-03-07T01:01:03;7.05;;;4.30;;
18720;SDS011;9489;50.948;3.114;2023-03-07T01:03:30;6.05;;;4.32;;
18720;SDS011;9489;50.948;3.114;2023-03-07T01:05:59;6.82;;;5.10;;
18720;SDS011;9489;50.948;3.114;2023-03-07T01:08:30;7.10;;;4.63;;
18720;SDS011;9489;50.948;3.114;2023-03-07T01:11:00;6.70;;;5.20;;
18720;SDS011;9489;50.948;3.114;2023-03-07T01:13:27;8.75;;;5.72;;
18720;SDS011;9489;50.948;3.114;2023-03-07T01:15:53;5.95;;;5.07;;
18720;SDS011;9489;50.948;3.114;2023-03-07T01:18:19;8.27;;;5.57;;
18720;SDS011;9489;50.948;3.114;2023-03-07T01:20:44;10.20;;;5.68;;
18720;SDS011;9489;50.948;3.114;2023-03-07T01:23:10;6.80;;;4.60;;
18720;SDS011;9489;50.948;3.114;2023-03-07T01:25:39;6.57;;;4.70;;
18720;SDS011;9489;50.948;3.114;2023-03-07T01:28:06;6.07;;;4.05;;
18720;SDS011;9489;50.948;3.114;2023-03-07T01:30:31;6.85;;;4.40;;
18720;SDS011;9489;50.948;3.114;2023-03-07T01:32:58;5.43;;;3.63;;
18720;SDS011;9489;50.948;3.114;2023-03-07T01:35:24;4.68;;;3.58;;
18720;SDS011;9489;50.948;3.114;2023-03-07T01:37:51;4.10;;;3.40;;
18720;SDS011;9489;50.948;3.114;2023-03-07T01:40:18;4.70;;;3.35;;
18720;SDS011;9489;50.948;3.114;2023-03-07T01:42:45;3.92;;;2.80;;
18720;SDS011;9489;50.948;3.114;2023-03-07T01:47:36;2.60;;;2.40;;
18720;SDS011;9489;50.948;3.114;2023-03-07T01:50:03;2.65;;;2.25;;
18720;SDS011;9489;50.948;3.114;2023-03-07T01:52:37;4.32;;;2.67;;
18720;SDS011;9489;50.948;3.114;2023-03-07T01:55:15;4.05;;;2.78;;
18720;SDS011;9489;50.948;3.114;2023-03-07T01:57:43;3.25;;;2.60;;
18720;SDS011;9489;50.948;3.114;2023-03-07T02:00:12;4.07;;;3.25;;
18720;SDS011;9489;50.948;3.114;2023-03-07T02:02:44;3.13;;;2.45;;
18720;SDS011;9489;50.948;3.114;2023-03-07T02:05:20;4.20;;;2.80;;
18720;SDS011;9489;50.948;3.114;2023-03-07T02:07:52;3.13;;;2.63;;
18720;SDS011;9489;50.948;3.114;2023-03-07T02:10:20;7.22;;;3.47;;
18720;SDS011;9489;50.948;3.114;2023-03-07T02:12:47;3.47;;;3.17;;
18720;SDS011;9489;50.948;3.114;2023-03-07T02:15:14;3.75;;;3.42;;
18720;SDS011;9489;50.948;3.114;2023-03-07T02:17:40;4.53;;;3.40;;
18720;SDS011;9489;50.948;3.114;2023-03-07T02:22:45;4.85;;;3.90;;
18720;SDS011;9489;50.948;3.114;2023-03-07T02:25:19;4.07;;;3.67;;
18720;SDS011;9489;50.948;3.114;2023-03-07T02:27:59;7.35;;;4.00;;
18720;SDS011;9489;50.948;3.114;2023-03-07T02:30:25;3.97;;;3.65;;
18720;SDS011;9489;50.948;3.114;2023-03-07T02:32:51;6.38;;;4.68;;
18720;SDS011;9489;50.948;3.114;2023-03-07T02:35:19;7.13;;;4.63;;
18720;SDS011;9489;50.948;3.114;2023-03-07T02:37:50;7.80;;;4.10;;
18720;SDS011;9489;50.948;3.114;2023-03-07T02:40:19;4.65;;;4.20;;
18720;SDS011;9489;50.948;3.114;2023-03-07T02:42:47;7.18;;;5.15;;
18720;SDS011;9489;50.948;3.114;2023-03-07T02:45:15;10.13;;;6.07;;
18720;SDS011;9489;50.948;3.114;2023-03-07T02:47:43;9.00;;;7.22;;
18720;SDS011;9489;50.948;3.114;2023-03-07T02:50:09;10.20;;;7.40;;
18720;SDS011;9489;50.948;3.114;2023-03-07T02:52:36;10.32;;;6.75;;
18720;SDS011;9489;50.948;3.114;2023-03-07T02:55:02;11.02;;;7.72;;
18720;SDS011;9489;50.948;3.114;2023-03-07T02:57:28;7.18;;;6.47;;
18720;SDS011;9489;50.948;3.114;2023-03-07T02:59:53;8.07;;;6.38;;
18720;SDS011;9489;50.948;3.114;2023-03-07T03:02:19;9.48;;;7.30;;
18720;SDS011;9489;50.948;3.114;2023-03-07T03:04:45;8.20;;;7.38;;
18720;SDS011;9489;50.948;3.114;2023-03-07T03:07:10;8.80;;;7.80;;
18720;SDS011;9489;50.948;3.114;2023-03-07T03:09:36;9.85;;;6.90;;
18720;SDS011;9489;50.948;3.114;2023-03-07T03:12:02;8.65;;;6.95;;
18720;SDS011;9489;50.948;3.114;2023-03-07T03:14:27;12.90;;;7.53;;
18720;SDS011;9489;50.948;3.114;2023-03-07T03:16:53;9.48;;;6.78;;
18720;SDS011;9489;50.948;3.114;2023-03-07T03:19:19;7.90;;;6.55;;
18720;SDS011;9489;50.948;3.114;2023-03-07T03:21:45;8.75;;;6.60;;
18720;SDS011;9489;50.948;3.114;2023-03-07T03:24:11;11.95;;;6.95;;
18720;SDS011;9489;50.948;3.114;2023-03-07T03:26:37;11.20;;;7.35;;
18720;SDS011;9489;50.948;3.114;2023-03-07T03:29:03;9.52;;;6.20;;
18720;SDS011;9489;50.948;3.114;2023-03-07T03:31:29;8.40;;;6.35;;
18720;SDS011;9489;50.948;3.114;2023-03-07T03:33:56;9.32;;;6.68;;
18720;SDS011;9489;50.948;3.114;2023-03-07T03:36:22;7.85;;;6.30;;
18720;SDS011;9489;50.948;3.114;2023-03-07T03:38:51;10.63;;;6.47;;
18720;SDS011;9489;50.948;3.114;2023-03-07T03:41:20;10.13;;;6.57;;
18720;SDS011;9489;50.948;3.114;2023-03-07T03:43:47;9.05;;;6.25;;
18720;SDS011;9489;50.948;3.114;2023-03-07T03:46:13;7.72;;;6.15;;
18720;SDS011;9489;50.948;3.114;2023-03-07T03:48:39;10.52;;;7.63;;
18720;SDS011;9489;50.948;3.114;2023-03-07T03:51:06;10.02;;;6.78;;
18720;SDS011;9489;50.948;3.114;2023-03-07T03:53:33;11.20;;;7.32;;
18720;SDS011;9489;50.948;3.114;2023-03-07T03:56:02;9.80;;;6.55;;
18720;SDS011;9489;50.948;3.114;2023-03-07T03:58:32;8.65;;;6.88;;
18720;SDS011;9489;50.948;3.114;2023-03-07T04:01:00;9.65;;;7.07;;
18720;SDS011;9489;50.948;3.114;2023-03-07T04:03:30;11.85;;;6.78;;
18720;SDS011;9489;50.948;3.114;2023-03-07T04:06:00;9.88;;;6.78;;
18720;SDS011;9489;50.948;3.114;2023-03-07T04:08:34;7.40;;;6.65;;
18720;SDS011;9489;50.948;3.114;2023-03-07T04:11:00;8.77;;;6.43;;
18720;SDS011;9489;50.948;3.114;2023-03-07T04:13:26;9.20;;;6.68;;
18720;SDS011;9489;50.948;3.114;2023-03-07T04:15:52;9.57;;;7.57;;
18720;SDS011;9489;50.948;3.114;2023-03-07T04:18:21;9.07;;;6.97;;
18720;SDS011;9489;50.948;3.114;2023-03-07T04:20:48;10.80;;;6.32;;
18720;SDS011;9489;50.948;3.114;2023-03-07T04:23:18;10.15;;;6.47;;
18720;SDS011;9489;50.948;3.114;2023-03-07T04:25:51;8.95;;;5.10;;
18720;SDS011;9489;50.948;3.114;2023-03-07T04:28:21;7.88;;;4.70;;
18720;SDS011;9489;50.948;3.114;2023-03-07T04:30:49;5.03;;;4.03;;
18720;SDS011;9489;50.948;3.114;2023-03-07T04:33:16;5.88;;;3.80;;
18720;SDS011;9489;50.948;3.114;2023-03-07T04:35:43;6.65;;;3.55;;
18720;SDS011;9489;50.948;3.114;2023-03-07T04:38:10;4.03;;;2.67;;
18720;SDS011;9489;50.948;3.114;2023-03-07T04:40:36;4.00;;;2.67;;
18720;SDS011;9489;50.948;3.114;2023-03-07T04:43:02;4.70;;;2.25;;
18720;SDS011;9489;50.948;3.114;2023-03-07T04:45:33;6.40;;;2.13;;
18720;SDS011;9489;50.948;3.114;2023-03-07T04:48:01;3.28;;;2.17;;
18720;SDS011;9489;50.948;3.114;2023-03-07T04:50:27;3.13;;;2.30;;
18720;SDS011;9489;50.948;3.114;2023-03-07T04:52:53;2.85;;;2.10;;
18720;SDS011;9489;50.948;3.114;2023-03-07T04:55:18;3.55;;;2.53;;
18720;SDS011;9489;50.948;3.114;2023-03-07T04:57:44;4.25;;;2.33;;
18720;SDS011;9489;50.948;3.114;2023-03-07T05:00:10;5.85;;;2.55;;
18720;SDS011;9489;50.948;3.114;2023-03-07T05:02:37;3.38;;;2.72;;
18720;SDS011;9489;50.948;3.114;2023-03-07T05:05:03;4.13;;;3.17;;
18720;SDS011;9489;50.948;3.114;2023-03-07T05:07:29;5.18;;;3.47;;
18720;SDS011;9489;50.948;3.114;2023-03-07T05:09:55;4.53;;;3.67;;
18720;SDS011;9489;50.948;3.114;2023-03-07T05:12:21;5.07;;;3.38;;
18720;SDS011;9489;50.948;3.114;2023-03-07T05:14:47;5.68;;;3.72;;
18720;SDS011;9489;50.948;3.114;2023-03-07T05:17:13;6.45;;;4.30;;
18720;SDS011;9489;50.948;3.114;2023-03-07T05:19:39;7.53;;;4.78;;
18720;SDS011;9489;50.948;3.114;2023-03-07T05:22:05;6.53;;;5.78;;
18720;SDS011;9489;50.948;3.114;2023-03-07T05:24:31;8.35;;;5.78;;
18720;SDS011;9489;50.948;3.114;2023-03-07T05:26:57;9.10;;;6.65;;
18720;SDS011;9489;50.948;3.114;2023-03-07T05:29:23;8.30;;;4.78;;
18720;SDS011;9489;50.948;3.114;2023-03-07T05:31:48;7.60;;;6.18;;
18720;SDS011;9489;50.948;3.114;2023-03-07T05:34:14;6.03;;;5.43;;
18720;SDS011;9489;50.948;3.114;2023-03-07T05:36:40;7.05;;;6.13;;
18720;SDS011;9489;50.948;3.114;2023-03-07T05:39:06;6.95;;;5.90;;
18720;SDS011;9489;50.948;3.114;2023-03-07T05:41:32;10.15;;;6.40;;
18720;SDS011;9489;50.948;3.114;2023-03-07T05:43:58;7.47;;;6.65;;
18720;SDS011;9489;50.948;3.114;2023-03-07T05:46:24;7.25;;;6.25;;
18720;SDS011;9489;50.948;3.114;2023-03-07T05:48:49;9.10;;;7.47;;
18720;SDS011;9489;50.948;3.114;2023-03-07T05:51:15;11.35;;;7.60;;
18720;SDS011;9489;50.948;3.114;2023-03-07T05:53:40;13.50;;;8.45;;
18720;SDS011;9489;50.948;3.114;2023-03-07T05:56:07;16.48;;;8.90;;
18720;SDS011;9489;50.948;3.114;2023-03-07T05:58:33;10.93;;;8.00;;
18720;SDS011;9489;50.948;3.114;2023-03-07T06:01:00;12.43;;;8.88;;
18720;SDS011;9489;50.948;3.114;2023-03-07T06:03:27;10.48;;;7.90;;
18720;SDS011;9489;50.948;3.114;2023-03-07T06:05:53;11.30;;;8.10;;
18720;SDS011;9489;50.948;3.114;2023-03-07T06:08:19;14.23;;;8.73;;
18720;SDS011;9489;50.948;3.114;2023-03-07T06:10:47;11.85;;;8.63;;
18720;SDS011;9489;50.948;3.114;2023-03-07T06:13:14;14.88;;;8.77;;
18720;SDS011;9489;50.948;3.114;2023-03-07T06:15:42;10.55;;;8.38;;
18720;SDS011;9489;50.948;3.114;2023-03-07T06:18:08;13.00;;;7.85;;
18720;SDS011;9489;50.948;3.114;2023-03-07T06:20:34;13.65;;;8.05;;
18720;SDS011;9489;50.948;3.114;2023-03-07T06:23:00;9.18;;;7.45;;
18720;SDS011;9489;50.948;3.114;2023-03-07T06:25:26;12.07;;;8.27;;
18720;SDS011;9489;50.948;3.114;2023-03-07T06:27:52;14.43;;;8.07;;
18720;SDS011;9489;50.948;3.114;2023-03-07T06:30:23;7.85;;;7.05;;
18720;SDS011;9489;50.948;3.114;2023-03-07T06:32:49;13.70;;;7.95;;
18720;SDS011;9489;50.948;3.114;2023-03-07T06:35:14;12.85;;;7.95;;
18720;SDS011;9489;50.948;3.114;2023-03-07T06:37:40;13.30;;;8.25;;
18720;SDS011;9489;50.948;3.114;2023-03-07T06:40:06;12.30;;;8.43;;
18720;SDS011;9489;50.948;3.114;2023-03-07T06:42:33;13.98;;;9.00;;
18720;SDS011;9489;50.948;3.114;2023-03-07T06:44:59;14.88;;;9.07;;
18720;SDS011;9489;50.948;3.114;2023-03-07T06:47:25;12.02;;;9.30;;
18720;SDS011;9489;50.948;3.114;2023-03-07T06:49:50;13.85;;;8.98;;
18720;SDS011;9489;50.948;3.114;2023-03-07T06:52:16;13.18;;;8.60;;
18720;SDS011;9489;50.948;3.114;2023-03-07T06:54:41;15.00;;;8.38;;
18720;SDS011;9489;50.948;3.114;2023-03-07T06:57:07;11.85;;;8.57;;
18720;SDS011;9489;50.948;3.114;2023-03-07T06:59:33;16.35;;;9.25;;
18720;SDS011;9489;50.948;3.114;2023-03-07T07:02:00;14.75;;;10.30;;
18720;SDS011;9489;50.948;3.114;2023-03-07T07:04:28;15.73;;;9.60;;
18720;SDS011;9489;50.948;3.114;2023-03-07T07:06:55;13.85;;;8.88;;
18720;SDS011;9489;50.948;3.114;2023-03-07T07:09:20;12.75;;;7.93;;
18720;SDS011;9489;50.948;3.114;2023-03-07T07:11:46;12.57;;;7.75;;
18720;SDS011;9489;50.948;3.114;2023-03-07T07:14:12;10.23;;;6.55;;
18720;SDS011;9489;50.948;3.114;2023-03-07T07:16:37;9.63;;;6.53;;
18720;SDS011;9489;50.948;3.114;2023-03-07T07:19:03;10.57;;;6.65;;
18720;SDS011;9489;50.948;3.114;2023-03-07T07:21:28;10.05;;;6.53;;
18720;SDS011;9489;50.948;3.114;2023-03-07T07:23:57;10.93;;;6.57;;
18720;SDS011;9489;50.948;3.114;2023-03-07T07:26:23;13.05;;;5.55;;
18720;SDS011;9489;50.948;3.114;2023-03-07T07:28:50;7.85;;;5.57;;
18720;SDS011;9489;50.948;3.114;2023-03-07T07:31:16;7.05;;;5.13;;
18720;SDS011;9489;50.948;3.114;2023-03-07T07:33:41;12.10;;;5.72;;
18720;SDS011;9489;50.948;3.114;2023-03-07T07:36:07;7.68;;;6.13;;
18720;SDS011;9489;50.948;3.114;2023-03-07T07:38:34;11.13;;;6.43;;
18720;SDS011;9489;50.948;3.114;2023-03-07T07:41:00;11.75;;;6.70;;
18720;SDS011;9489;50.948;3.114;2023-03-07T07:43:28;9.32;;;6.10;;
18720;SDS011;9489;50.948;3.114;2023-03-07T07:45:54;7.05;;;6.15;;
18720;SDS011;9489;50.948;3.114;2023-03-07T07:48:20;8.23;;;5.13;;
18720;SDS011;9489;50.948;3.114;2023-03-07T07:50:46;6.72;;;4.78;;
18720;SDS011;9489;50.948;3.114;2023-03-07T07:53:12;10.40;;;5.00;;
18720;SDS011;9489;50.948;3.114;2023-03-07T07:55:38;8.25;;;5.13;;
18720;SDS011;9489;50.948;3.114;2023-03-07T07:58:03;6.50;;;5.00;;
18720;SDS011;9489;50.948;3.114;2023-03-07T08:00:30;9.60;;;5.47;;
18720;SDS011;9489;50.948;3.114;2023-03-07T08:02:56;7.50;;;4.18;;
18720;SDS011;9489;50.948;3.114;2023-03-07T08:05:22;9.07;;;4.63;;
18720;SDS011;9489;50.948;3.114;2023-03-07T08:07:48;7.82;;;4.82;;
18720;SDS011;9489;50.948;3.114;2023-03-07T08:10:14;9.02;;;5.32;;
18720;SDS011;9489;50.948;3.114;2023-03-07T08:12:43;6.85;;;4.82;;
18720;SDS011;9489;50.948;3.114;2023-03-07T08:15:11;7.35;;;5.15;;
18720;SDS011;9489;50.948;3.114;2023-03-07T08:17:37;6.30;;;4.55;;
18720;SDS011;9489;50.948;3.114;2023-03-07T08:20:03;7.80;;;5.03;;
18720;SDS011;9489;50.948;3.114;2023-03-07T08:22:34;8.43;;;4.70;;
18720;SDS011;9489;50.948;3.114;2023-03-07T08:25:03;5.30;;;4.80;;
18720;SDS011;9489;50.948;3.114;2023-03-07T08:27:30;6.53;;;5.20;;
18720;SDS011;9489;50.948;3.114;2023-03-07T08:29:56;6.47;;;4.43;;
18720;SDS011;9489;50.948;3.114;2023-03-07T08:32:23;6.25;;;4.95;;
18720;SDS011;9489;50.948;3.114;2023-03-07T08:34:48;7.65;;;5.25;;
18720;SDS011;9489;50.948;3.114;2023-03-07T08:37:14;6.90;;;5.18;;
18720;SDS011;9489;50.948;3.114;2023-03-07T08:39:40;9.52;;;4.72;;
18720;SDS011;9489;50.948;3.114;2023-03-07T08:42:05;7.32;;;5.05;;
18720;SDS011;9489;50.948;3.114;2023-03-07T08:44:31;7.65;;;4.85;;
18720;SDS011;9489;50.948;3.114;2023-03-07T08:46:56;5.88;;;4.93;;
18720;SDS011;9489;50.948;3.114;2023-03-07T08:49:22;8.02;;;5.32;;
18720;SDS011;9489;50.948;3.114;2023-03-07T08:51:48;5.97;;;4.63;;
18720;SDS011;9489;50.948;3.114;2023-03-07T08:54:13;8.75;;;6.10;;
18720;SDS011;9489;50.948;3.114;2023-03-07T08:56:39;8.07;;;5.95;;
18720;SDS011;9489;50.948;3.114;2023-03-07T08:59:05;6.45;;;5.85;;
18720;SDS011;9489;50.948;3.114;2023-03-07T09:01:31;6.45;;;5.82;;
18720;SDS011;9489;50.948;3.114;2023-03-07T09:03:56;6.28;;;5.68;;
18720;SDS011;9489;50.948;3.114;2023-03-07T09:06:22;6.38;;;5.68;;
18720;SDS011;9489;50.948;3.114;2023-03-07T09:08:48;6.18;;;5.57;;
18720;SDS011;9489;50.948;3.114;2023-03-07T09:11:14;7.30;;;5.65;;
18720;SDS011;9489;50.948;3.114;2023-03-07T09:13:41;8.32;;;6.45;;
18720;SDS011;9489;50.948;3.114;2023-03-07T09:16:07;7.22;;;5.30;;
18720;SDS011;9489;50.948;3.114;2023-03-07T09:18:33;6.68;;;5.57;;
18720;SDS011;9489;50.948;3.114;2023-03-07T09:21:00;6.45;;;5.70;;
18720;SDS011;9489;50.948;3.114;2023-03-07T09:23:27;6.80;;;6.20;;
18720;SDS011;9489;50.948;3.114;2023-03-07T09:25:52;6.47;;;5.88;;
18720;SDS011;9489;50.948;3.114;2023-03-07T09:28:18;5.68;;;4.97;;
18720;SDS011;9489;50.948;3.114;2023-03-07T09:30:44;5.65;;;5.13;;
18720;SDS011;9489;50.948;3.114;2023-03-07T09:33:09;4.03;;;3.65;;
18720;SDS011;9489;50.948;3.114;2023-03-07T09:35:36;3.47;;;3.10;;
18720;SDS011;9489;50.948;3.114;2023-03-07T09:38:02;3.15;;;2.85;;
18720;SDS011;9489;50.948;3.114;2023-03-07T09:40:28;2.97;;;2.72;;
18720;SDS011;9489;50.948;3.114;2023-03-07T09:48:23;2.30;;;1.95;;
18720;SDS011;9489;50.948;3.114;2023-03-07T09:51:20;3.30;;;2.45;;
18720;SDS011;9489;50.948;3.114;2023-03-07T09:53:58;2.85;;;2.60;;
18720;SDS011;9489;50.948;3.114;2023-03-07T09:56:30;2.83;;;2.17;;
18720;SDS011;9489;50.948;3.114;2023-03-07T09:59:48;2.80;;;2.50;;
18720;SDS011;9489;50.948;3.114;2023-03-07T10:02:00;3.03;;;2.70;;
18720;SDS011;9489;50.948;3.114;2023-03-07T10:07:11;2.60;;;2.38;;
18720;SDS011;9489;50.948;3.114;2023-03-07T10:09:39;2.40;;;2.20;;
18720;SDS011;9489;50.948;3.114;2023-03-07T10:15:25;2.65;;;2.45;;
18720;SDS011;9489;50.948;3.114;2023-03-07T10:18:20;2.13;;;1.92;;
18720;SDS011;9489;50.948;3.114;2023-03-07T10:27:18;3.88;;;2.28;;
18720;SDS011;9489;50.948;3.114;2023-03-07T10:29:26;2.65;;;2.45;;
18720;SDS011;9489;50.948;3.114;2023-03-07T10:34:44;2.50;;;1.90;;
18720;SDS011;9489;50.948;3.114;2023-03-07T10:37:19;2.60;;;2.00;;
18720;SDS011;9489;50.948;3.114;2023-03-07T10:42:24;2.15;;;1.95;;
18720;SDS011;9489;50.948;3.114;2023-03-07T10:44:56;2.58;;;2.00;;
18720;SDS011;9489;50.948;3.114;2023-03-07T10:47:25;2.08;;;1.60;;
18720;SDS011;9489;50.948;3.114;2023-03-07T10:49:56;2.30;;;2.10;;
18720;SDS011;9489;50.948;3.114;2023-03-07T10:52:42;7.40;;;5.20;;
18720;SDS011;9489;50.948;3.114;2023-03-07T10:55:28;3.33;;;2.83;;
18720;SDS011;9489;50.948;3.114;2023-03-07T10:58:40;2.63;;;2.40;;
18720;SDS011;9489;50.948;3.114;2023-03-07T11:03:51;2.08;;;1.98;;
18720;SDS011;9489;50.948;3.114;2023-03-07T11:09:06;3.15;;;1.90;;
18720;SDS011;9489;50.948;3.114;2023-03-07T11:11:34;2.03;;;1.80;;
18720;SDS011;9489;50.948;3.114;2023-03-07T11:14:10;2.13;;;1.85;;
18720;SDS011;9489;50.948;3.114;2023-03-07T11:16:40;1.70;;;1.60;;
18720;SDS011;9489;50.948;3.114;2023-03-07T11:19:29;2.20;;;2.10;;
18720;SDS011;9489;50.948;3.114;2023-03-07T11:21:56;3.50;;;2.10;;
18720;SDS011;9489;50.948;3.114;2023-03-07T11:26:52;2.15;;;1.95;;
18720;SDS011;9489;50.948;3.114;2023-03-07T11:29:21;2.70;;;1.70;;
18720;SDS011;9489;50.948;3.114;2023-03-07T11:32:03;2.10;;;2.00;;
18720;SDS011;9489;50.948;3.114;2023-03-07T11:42:50;2.55;;;2.38;;
18720;SDS011;9489;50.948;3.114;2023-03-07T11:48:03;3.00;;;2.80;;
18720;SDS011;9489;50.948;3.114;2023-03-07T11:50:52;3.40;;;3.10;;
18720;SDS011;9489;50.948;3.114;2023-03-07T11:53:31;2.92;;;2.72;;
18720;SDS011;9489;50.948;3.114;2023-03-07T12:18:13;3.83;;;3.42;;
18720;SDS011;9489;50.948;3.114;2023-03-07T12:24:06;3.95;;;3.65;;
18720;SDS011;9489;50.948;3.114;2023-03-07T12:26:47;3.65;;;3.35;;
18720;SDS011;9489;50.948;3.114;2023-03-07T12:32:03;4.57;;;4.22;;
18720;SDS011;9489;50.948;3.114;2023-03-07T12:34:41;4.35;;;3.83;;
18720;SDS011;9489;50.948;3.114;2023-03-07T12:37:12;4.38;;;3.92;;
18720;SDS011;9489;50.948;3.114;2023-03-07T12:39:48;4.70;;;4.30;;
18720;SDS011;9489;50.948;3.114;2023-03-07T13:01:36;3.97;;;3.67;;
18720;SDS011;9489;50.948;3.114;2023-03-07T13:04:16;5.82;;;3.90;;
18720;SDS011;9489;50.948;3.114;2023-03-07T13:06:49;3.60;;;3.30;;
18720;SDS011;9489;50.948;3.114;2023-03-07T13:09:23;4.03;;;3.33;;
18720;SDS011;9489;50.948;3.114;2023-03-07T13:30:17;2.90;;;2.70;;
18720;SDS011;9489;50.948;3.114;2023-03-07T13:38:01;3.55;;;3.10;;
18720;SDS011;9489;50.948;3.114;2023-03-07T13:45:49;3.63;;;2.90;;
18720;SDS011;9489;50.948;3.114;2023-03-07T13:53:11;2.53;;;2.25;;
18720;SDS011;9489;50.948;3.114;2023-03-07T13:55:49;2.30;;;2.20;;
18720;SDS011;9489;50.948;3.114;2023-03-07T13:58:22;2.60;;;2.40;;
18720;SDS011;9489;50.948;3.114;2023-03-07T14:01:11;3.03;;;2.80;;
18720;SDS011;9489;50.948;3.114;2023-03-07T14:03:43;3.22;;;2.92;;
18720;SDS011;9489;50.948;3.114;2023-03-07T14:06:27;2.92;;;2.70;;
18720;SDS011;9489;50.948;3.114;2023-03-07T14:08:57;3.13;;;2.92;;
18720;SDS011;9489;50.948;3.114;2023-03-07T14:11:37;3.05;;;2.78;;
18720;SDS011;9489;50.948;3.114;2023-03-07T14:14:28;3.53;;;3.30;;
18720;SDS011;9489;50.948;3.114;2023-03-07T14:17:20;3.63;;;3.38;;
18720;SDS011;9489;50.948;3.114;2023-03-07T14:20:10;3.45;;;3.20;;
18720;SDS011;9489;50.948;3.114;2023-03-07T14:27:52;3.15;;;2.95;;
18720;SDS011;9489;50.948;3.114;2023-03-07T14:30:24;3.75;;;3.40;;
18720;SDS011;9489;50.948;3.114;2023-03-07T14:32:54;3.78;;;3.53;;
18720;SDS011;9489;50.948;3.114;2023-03-07T14:37:59;4.63;;;4.22;;
18720;SDS011;9489;50.948;3.114;2023-03-07T14:40:27;6.32;;;5.70;;
18720;SDS011;9489;50.948;3.114;2023-03-07T14:43:16;5.68;;;5.18;;
18720;SDS011;9489;50.948;3.114;2023-03-07T14:45:52;5.47;;;4.97;;
18720;SDS011;9489;50.948;3.114;2023-03-07T14:51:20;6.38;;;5.40;;
18720;SDS011;9489;50.948;3.114;2023-03-07T14:53:49;5.78;;;5.28;;
18720;SDS011;9489;50.948;3.114;2023-03-07T14:56:22;5.57;;;5.18;;
18720;SDS011;9489;50.948;3.114;2023-03-07T14:58:53;9.07;;;8.20;;
18720;SDS011;9489;50.948;3.114;2023-03-07T15:01:21;6.93;;;6.43;;
18720;SDS011;9489;50.948;3.114;2023-03-07T15:03:50;5.88;;;5.38;;
18720;SDS011;9489;50.948;3.114;2023-03-07T15:06:21;6.15;;;5.65;;
18720;SDS011;9489;50.948;3.114;2023-03-07T15:08:49;4.63;;;4.20;;
18720;SDS011;9489;50.948;3.114;2023-03-07T15:16:36;5.50;;;4.90;;
18720;SDS011;9489;50.948;3.114;2023-03-07T15:21:53;5.70;;;5.03;;
18720;SDS011;9489;50.948;3.114;2023-03-07T15:24:26;6.63;;;5.70;;
18720;SDS011;9489;50.948;3.114;2023-03-07T15:26:56;6.03;;;5.40;;
18720;SDS011;9489;50.948;3.114;2023-03-07T15:29:25;6.15;;;5.65;;
18720;SDS011;9489;50.948;3.114;2023-03-07T15:31:53;4.72;;;4.22;;
18720;SDS011;9489;50.948;3.114;2023-03-07T15:34:27;7.28;;;6.03;;
18720;SDS011;9489;50.948;3.114;2023-03-07T15:36:54;7.22;;;6.53;;
18720;SDS011;9489;50.948;3.114;2023-03-07T15:39:36;6.72;;;6.13;;
18720;SDS011;9489;50.948;3.114;2023-03-07T15:42:03;6.20;;;5.70;;
18720;SDS011;9489;50.948;3.114;2023-03-07T15:44:31;7.13;;;5.35;;
18720;SDS011;9489;50.948;3.114;2023-03-07T15:46:58;5.60;;;5.20;;
18720;SDS011;9489;50.948;3.114;2023-03-07T15:52:01;6.03;;;5.53;;
18720;SDS011;9489;50.948;3.114;2023-03-07T15:54:37;4.05;;;3.75;;
18720;SDS011;9489;50.948;3.114;2023-03-07T15:57:06;4.70;;;4.30;;
18720;SDS011;9489;50.948;3.114;2023-03-07T15:59:40;4.80;;;4.32;;
18720;SDS011;9489;50.948;3.114;2023-03-07T16:04:57;5.53;;;4.97;;
18720;SDS011;9489;50.948;3.114;2023-03-07T16:07:23;4.72;;;4.32;;
18720;SDS011;9489;50.948;3.114;2023-03-07T16:09:49;4.05;;;3.75;;
18720;SDS011;9489;50.948;3.114;2023-03-07T16:12:16;4.80;;;4.40;;
18720;SDS011;9489;50.948;3.114;2023-03-07T16:14:45;5.28;;;4.78;;
18720;SDS011;9489;50.948;3.114;2023-03-07T16:17:34;4.88;;;4.47;;
18720;SDS011;9489;50.948;3.114;2023-03-07T16:19:59;7.28;;;5.72;;
18720;SDS011;9489;50.948;3.114;2023-03-07T16:22:25;5.03;;;4.63;;
18720;SDS011;9489;50.948;3.114;2023-03-07T16:24:51;5.90;;;5.40;;
18720;SDS011;9489;50.948;3.114;2023-03-07T16:27:18;6.10;;;5.53;;
18720;SDS011;9489;50.948;3.114;2023-03-07T16:29:45;5.78;;;4.90;;
18720;SDS011;9489;50.948;3.114;2023-03-07T16:32:12;5.45;;;4.32;;
18720;SDS011;9489;50.948;3.114;2023-03-07T16:34:43;6.43;;;5.45;;
18720;SDS011;9489;50.948;3.114;2023-03-07T16:37:08;5.57;;;5.07;;
18720;SDS011;9489;50.948;3.114;2023-03-07T16:39:34;6.97;;;4.50;;
18720;SDS011;9489;50.948;3.114;2023-03-07T16:42:00;4.60;;;4.20;;
18720;SDS011;9489;50.948;3.114;2023-03-07T16:44:26;5.93;;;4.93;;
18720;SDS011;9489;50.948;3.114;2023-03-07T16:47:25;5.80;;;5.30;;
18720;SDS011;9489;50.948;3.114;2023-03-07T16:49:44;7.20;;;5.45;;
18720;SDS011;9489;50.948;3.114;2023-03-07T16:52:13;6.45;;;5.78;;
18720;SDS011;9489;50.948;3.114;2023-03-07T16:54:39;7.68;;;6.10;;
18720;SDS011;9489;50.948;3.114;2023-03-07T16:57:05;5.97;;;5.47;;
18720;SDS011;9489;50.948;3.114;2023-03-07T16:59:35;6.90;;;5.57;;
18720;SDS011;9489;50.948;3.114;2023-03-07T17:02:09;8.20;;;6.10;;
18720;SDS011;9489;50.948;3.114;2023-03-07T17:04:38;5.65;;;5.13;;
18720;SDS011;9489;50.948;3.114;2023-03-07T17:07:04;5.80;;;5.25;;
18720;SDS011;9489;50.948;3.114;2023-03-07T17:09:43;7.45;;;5.53;;
18720;SDS011;9489;50.948;3.114;2023-03-07T17:12:09;6.85;;;6.13;;
18720;SDS011;9489;50.948;3.114;2023-03-07T17:14:35;7.00;;;5.53;;
18720;SDS011;9489;50.948;3.114;2023-03-07T17:17:01;7.55;;;6.15;;
18720;SDS011;9489;50.948;3.114;2023-03-07T17:19:29;9.35;;;7.38;;
18720;SDS011;9489;50.948;3.114;2023-03-07T17:21:56;7.75;;;6.95;;
18720;SDS011;9489;50.948;3.114;2023-03-07T17:24:24;8.20;;;7.40;;
18720;SDS011;9489;50.948;3.114;2023-03-07T17:26:50;8.38;;;7.57;;
18720;SDS011;9489;50.948;3.114;2023-03-07T17:29:25;8.85;;;8.05;;
18720;SDS011;9489;50.948;3.114;2023-03-07T17:31:56;9.88;;;8.38;;
18720;SDS011;9489;50.948;3.114;2023-03-07T17:34:31;9.48;;;8.57;;
18720;SDS011;9489;50.948;3.114;2023-03-07T17:36:58;8.80;;;7.90;;
18720;SDS011;9489;50.948;3.114;2023-03-07T17:39:24;9.38;;;8.48;;
18720;SDS011;9489;50.948;3.114;2023-03-07T17:41:52;9.48;;;8.48;;